sensor_id;sensor_type;location;lat;lon;timestamp;pressure;altitude;pressure_sealevel;temperature;humidity
10604;BME280;5349;41.554;23.274;2023-02-12T00:00:04;100634.63;;;-0.13;67.05
10604;BME280;5349;41.554;23.274;2023-02-12T00:02:31;100646.69;;;-0.11;67.31
10604;BME280;5349;41.554;23.274;2023-02-12T00:04:58;100644.81;;;-0.09;67.48
10604;BME280;5349;41.554;23.274;2023-02-12T00:07:28;100640.31;;;-0.07;66.95
10604;BME280;5349;41.554;23.274;2023-02-12T00:09:55;100625.22;;;-0.03;66.16
10604;BME280;5349;41.554;23.274;2023-02-12T00:12:22;100633.28;;;-0.06;67.58
10604;BME280;5349;41.554;23.274;2023-02-12T00:14:49;100643.41;;;-0.14;66.85
10604;BME280;5349;41.554;23.274;2023-02-12T00:17:16;100632.72;;;-0.11;66.75
10604;BME280;5349;41.554;23.274;2023-02-12T00:19:43;100633.19;;;-0.05;67.30
10604;BME280;5349;41.554;23.274;2023-02-12T00:22:10;100635.31;;;0.02;68.17
10604;BME280;5349;41.554;23.274;2023-02-12T00:24:38;100632.38;;;0.07;67.38
10604;BME280;5349;41.554;23.274;2023-02-12T00:27:05;100631.63;;;0.05;68.25
10604;BME280;5349;41.554;23.274;2023-02-12T00:29:32;100621.78;;;0.08;68.44
10604;BME280;5349;41.554;23.274;2023-02-12T00:31:58;100623.47;;;0.09;68.25
10604;BME280;5349;41.554;23.274;2023-02-12T00:34:25;100628.53;;;0.12;68.04
10604;BME280;5349;41.554;23.274;2023-02-12T00:36:52;100624.63;;;0.05;67.66
10604;BME280;5349;41.554;23.274;2023-02-12T00:39:19;100621.25;;;0.03;67.11
10604;BME280;5349;41.554;23.274;2023-02-12T00:41:47;100626.28;;;0.06;67.46
10604;BME280;5349;41.554;23.274;2023-02-12T00:44:14;100623.69;;;0.06;67.46
10604;BME280;5349;41.554;23.274;2023-02-12T00:46:41;100622.72;;;0.07;67.09
10604;BME280;5349;41.554;23.274;2023-02-12T00:49:08;100618.13;;;0.11;66.94
10604;BME280;5349;41.554;23.274;2023-02-12T00:51:35;100621.69;;;0.10;66.34
10604;BME280;5349;41.554;23.274;2023-02-12T00:54:02;100614.94;;;0.06;66.70
10604;BME280;5349;41.554;23.274;2023-02-12T00:56:28;100613.78;;;-0.03;65.85
10604;BME280;5349;41.554;23.274;2023-02-12T00:58:57;100599.00;;;-0.03;65.63
10604;BME280;5349;41.554;23.274;2023-02-12T01:01:24;100607.78;;;-0.17;65.44
10604;BME280;5349;41.554;23.274;2023-02-12T01:03:51;100603.34;;;-0.16;65.91
10604;BME280;5349;41.554;23.274;2023-02-12T01:06:18;100602.31;;;-0.14;67.21
10604;BME280;5349;41.554;23.274;2023-02-12T01:08:44;100608.41;;;-0.13;66.87
10604;BME280;5349;41.554;23.274;2023-02-12T01:11:12;100592.78;;;-0.15;66.54
10604;BME280;5349;41.554;23.274;2023-02-12T01:13:39;100597.50;;;-0.07;66.19
10604;BME280;5349;41.554;23.274;2023-02-12T01:16:12;100586.41;;;0.01;66.56
10604;BME280;5349;41.554;23.274;2023-02-12T01:18:39;100591.34;;;0.06;66.44
10604;BME280;5349;41.554;23.274;2023-02-12T01:21:11;100584.00;;;0.11;65.14
10604;BME280;5349;41.554;23.274;2023-02-12T01:23:38;100583.53;;;0.18;66.08
10604;BME280;5349;41.554;23.274;2023-02-12T01:26:05;100572.09;;;0.19;67.09
10604;BME280;5349;41.554;23.274;2023-02-12T01:28:35;100571.56;;;0.14;67.81
10604;BME280;5349;41.554;23.274;2023-02-12T01:31:09;100573.44;;;0.12;67.94
10604;BME280;5349;41.554;23.274;2023-02-12T01:33:35;100568.59;;;0.06;68.18
10604;BME280;5349;41.554;23.274;2023-02-12T01:36:03;100571.75;;;0.11;67.10
10604;BME280;5349;41.554;23.274;2023-02-12T01:38:30;100568.00;;;0.15;67.55
10604;BME280;5349;41.554;23.274;2023-02-12T01:41:01;100548.78;;;0.15;68.02
10604;BME280;5349;41.554;23.274;2023-02-12T01:43:28;100567.16;;;0.27;67.79
10604;BME280;5349;41.554;23.274;2023-02-12T01:45:58;100558.78;;;0.35;67.95
10604;BME280;5349;41.554;23.274;2023-02-12T01:48:28;100552.91;;;0.31;67.27
10604;BME280;5349;41.554;23.274;2023-02-12T01:50:56;100553.53;;;0.22;67.41
10604;BME280;5349;41.554;23.274;2023-02-12T01:53:28;100545.31;;;0.14;67.96
10604;BME280;5349;41.554;23.274;2023-02-12T01:55:58;100549.50;;;0.04;68.15
10604;BME280;5349;41.554;23.274;2023-02-12T01:58:29;100546.16;;;0.02;68.64
10604;BME280;5349;41.554;23.274;2023-02-12T02:01:00;100546.47;;;-0.02;68.28
10604;BME280;5349;41.554;23.274;2023-02-12T02:03:29;100550.13;;;-0.04;68.81
10604;BME280;5349;41.554;23.274;2023-02-12T02:06:00;100547.59;;;-0.06;68.30
10604;BME280;5349;41.554;23.274;2023-02-12T02:08:29;100546.97;;;-0.09;68.94
10604;BME280;5349;41.554;23.274;2023-02-12T02:10:56;100550.78;;;-0.27;69.71
10604;BME280;5349;41.554;23.274;2023-02-12T02:13:23;100544.56;;;-0.39;70.70
10604;BME280;5349;41.554;23.274;2023-02-12T02:16:16;100539.16;;;-0.62;72.02
10604;BME280;5349;41.554;23.274;2023-02-12T02:18:50;100535.72;;;-0.77;71.54
10604;BME280;5349;41.554;23.274;2023-02-12T02:21:56;100534.53;;;-0.85;72.17
10604;BME280;5349;41.554;23.274;2023-02-12T02:32:58;100534.19;;;-0.67;71.04
10604;BME280;5349;41.554;23.274;2023-02-12T02:35:36;100522.09;;;-0.55;70.99
10604;BME280;5349;41.554;23.274;2023-02-12T02:38:13;100523.03;;;-0.56;72.33
10604;BME280;5349;41.554;23.274;2023-02-12T02:40:50;100525.94;;;-0.61;73.58
10604;BME280;5349;41.554;23.274;2023-02-12T02:46:52;100522.28;;;-0.58;74.10
10604;BME280;5349;41.554;23.274;2023-02-12T02:49:23;100521.34;;;-0.57;73.65
10604;BME280;5349;41.554;23.274;2023-02-12T02:51:54;100524.41;;;-0.51;73.83
10604;BME280;5349;41.554;23.274;2023-02-12T02:54:26;100529.34;;;-0.46;73.77
10604;BME280;5349;41.554;23.274;2023-02-12T02:56:58;100528.97;;;-0.40;73.11
10604;BME280;5349;41.554;23.274;2023-02-12T02:59:30;100526.34;;;-0.40;72.46
10604;BME280;5349;41.554;23.274;2023-02-12T03:02:01;100530.72;;;-0.41;71.63
10604;BME280;5349;41.554;23.274;2023-02-12T03:04:32;100525.41;;;-0.39;71.30
10604;BME280;5349;41.554;23.274;2023-02-12T03:07:05;100530.19;;;-0.46;71.66
10604;BME280;5349;41.554;23.274;2023-02-12T03:09:37;100535.72;;;-0.50;71.77
10604;BME280;5349;41.554;23.274;2023-02-12T03:12:07;100533.50;;;-0.56;72.18
10604;BME280;5349;41.554;23.274;2023-02-12T03:14:38;100526.63;;;-0.71;72.23
10604;BME280;5349;41.554;23.274;2023-02-12T03:17:09;100528.69;;;-1.03;73.01
10604;BME280;5349;41.554;23.274;2023-02-12T03:19:41;100529.25;;;-1.12;74.29
10604;BME280;5349;41.554;23.274;2023-02-12T03:22:10;100529.25;;;-1.12;74.92
10604;BME280;5349;41.554;23.274;2023-02-12T03:24:40;100532.53;;;-1.22;75.08
10604;BME280;5349;41.554;23.274;2023-02-12T03:27:12;100532.38;;;-1.33;76.46
10604;BME280;5349;41.554;23.274;2023-02-12T03:29:41;100536.56;;;-1.58;78.53
10604;BME280;5349;41.554;23.274;2023-02-12T03:32:22;100524.31;;;-1.72;79.89
10604;BME280;5349;41.554;23.274;2023-02-12T03:35:01;100526.16;;;-1.74;80.06
10604;BME280;5349;41.554;23.274;2023-02-12T03:37:33;100522.16;;;-1.79;81.78
10604;BME280;5349;41.554;23.274;2023-02-12T03:40:09;100519.72;;;-1.82;82.21
10604;BME280;5349;41.554;23.274;2023-02-12T03:42:43;100522.16;;;-1.79;82.22
10604;BME280;5349;41.554;23.274;2023-02-12T03:45:18;100520.56;;;-1.68;80.79
10604;BME280;5349;41.554;23.274;2023-02-12T03:47:50;100517.50;;;-1.60;79.88
10604;BME280;5349;41.554;23.274;2023-02-12T03:50:28;100514.16;;;-1.48;78.71
10604;BME280;5349;41.554;23.274;2023-02-12T03:52:57;100516.00;;;-1.36;79.70
10604;BME280;5349;41.554;23.274;2023-02-12T03:55:24;100520.84;;;-1.30;79.96
10604;BME280;5349;41.554;23.274;2023-02-12T03:57:54;100522.81;;;-1.20;78.86
10604;BME280;5349;41.554;23.274;2023-02-12T04:00:25;100521.69;;;-1.16;78.04
10604;BME280;5349;41.554;23.274;2023-02-12T04:02:54;100516.47;;;-1.16;77.81
10604;BME280;5349;41.554;23.274;2023-02-12T04:05:23;100518.34;;;-1.18;77.42
10604;BME280;5349;41.554;23.274;2023-02-12T04:07:51;100512.16;;;-1.17;77.70
10604;BME280;5349;41.554;23.274;2023-02-12T04:10:21;100517.03;;;-1.25;78.05
10604;BME280;5349;41.554;23.274;2023-02-12T04:12:56;100514.59;;;-1.28;78.48
10604;BME280;5349;41.554;23.274;2023-02-12T04:15:48;100512.72;;;-1.26;78.53
10604;BME280;5349;41.554;23.274;2023-02-12T04:18:19;100510.88;;;-1.24;77.91
10604;BME280;5349;41.554;23.274;2023-02-12T04:20:55;100519.16;;;-1.18;78.03
10604;BME280;5349;41.554;23.274;2023-02-12T04:23:43;100520.75;;;-1.15;77.95
10604;BME280;5349;41.554;23.274;2023-02-12T04:26:21;100517.22;;;-1.14;77.63
10604;BME280;5349;41.554;23.274;2023-02-12T04:29:01;100500.97;;;-1.33;76.86
10604;BME280;5349;41.554;23.274;2023-02-12T04:31:36;100479.75;;;-1.42;77.65
10604;BME280;5349;41.554;23.274;2023-02-12T04:34:11;100502.06;;;-1.23;77.30
10604;BME280;5349;41.554;23.274;2023-02-12T04:36:44;100515.91;;;-1.49;79.56
10604;BME280;5349;41.554;23.274;2023-02-12T04:39:16;100511.44;;;-1.61;80.83
10604;BME280;5349;41.554;23.274;2023-02-12T04:41:44;100511.97;;;-1.70;79.92
10604;BME280;5349;41.554;23.274;2023-02-12T04:44:16;100507.97;;;-1.75;79.53
10604;BME280;5349;41.554;23.274;2023-02-12T04:46:44;100523.00;;;-1.65;79.99
10604;BME280;5349;41.554;23.274;2023-02-12T04:49:14;100497.59;;;-1.77;80.32
10604;BME280;5349;41.554;23.274;2023-02-12T04:51:42;100522.38;;;-1.54;79.63
10604;BME280;5349;41.554;23.274;2023-02-12T04:54:09;100510.03;;;-1.52;79.74
10604;BME280;5349;41.554;23.274;2023-02-12T04:56:36;100514.34;;;-1.51;79.79
10604;BME280;5349;41.554;23.274;2023-02-12T04:59:03;100519.47;;;-1.50;79.15
10604;BME280;5349;41.554;23.274;2023-02-12T05:01:33;100517.59;;;-1.48;79.61
10604;BME280;5349;41.554;23.274;2023-02-12T05:04:01;100518.53;;;-1.49;79.63
10604;BME280;5349;41.554;23.274;2023-02-12T05:06:30;100512.38;;;-1.48;79.61
10604;BME280;5349;41.554;23.274;2023-02-12T05:09:00;100528.81;;;-1.60;79.33
10604;BME280;5349;41.554;23.274;2023-02-12T05:11:27;100516.22;;;-1.53;78.39
10604;BME280;5349;41.554;23.274;2023-02-12T05:13:54;100510.13;;;-1.54;77.93
10604;BME280;5349;41.554;23.274;2023-02-12T05:16:21;100510.50;;;-1.60;77.93
10604;BME280;5349;41.554;23.274;2023-02-12T05:18:48;100503.00;;;-1.66;78.84
10604;BME280;5349;41.554;23.274;2023-02-12T05:21:15;100517.03;;;-1.67;80.29
10604;BME280;5349;41.554;23.274;2023-02-12T05:23:43;100513.97;;;-1.59;80.93
10604;BME280;5349;41.554;23.274;2023-02-12T05:26:13;100524.13;;;-1.55;78.21
10604;BME280;5349;41.554;23.274;2023-02-12T05:28:41;100520.03;;;-1.45;78.64
10604;BME280;5349;41.554;23.274;2023-02-12T05:31:09;100534.97;;;-1.33;79.46
10604;BME280;5349;41.554;23.274;2023-02-12T05:33:36;100537.28;;;-1.28;78.93
10604;BME280;5349;41.554;23.274;2023-02-12T05:36:04;100544.88;;;-1.24;79.17
10604;BME280;5349;41.554;23.274;2023-02-12T05:38:31;100544.59;;;-1.20;79.33
10604;BME280;5349;41.554;23.274;2023-02-12T05:41:05;100544.00;;;-1.11;78.06
10604;BME280;5349;41.554;23.274;2023-02-12T05:43:32;100554.19;;;-1.06;77.88
10604;BME280;5349;41.554;23.274;2023-02-12T05:45:58;100545.56;;;-0.94;77.72
10604;BME280;5349;41.554;23.274;2023-02-12T05:48:26;100568.47;;;-0.84;77.83
10604;BME280;5349;41.554;23.274;2023-02-12T05:50:53;100548.91;;;-0.78;77.71
10604;BME280;5349;41.554;23.274;2023-02-12T05:53:20;100552.66;;;-0.82;76.47
10604;BME280;5349;41.554;23.274;2023-02-12T05:55:46;100545.03;;;-0.73;72.99
10604;BME280;5349;41.554;23.274;2023-02-12T05:58:15;100568.16;;;-0.65;74.03
10604;BME280;5349;41.554;23.274;2023-02-12T06:00:42;100559.97;;;-0.61;74.19
10604;BME280;5349;41.554;23.274;2023-02-12T06:03:08;100562.00;;;-0.52;73.99
10604;BME280;5349;41.554;23.274;2023-02-12T06:05:35;100559.00;;;-0.46;73.26
10604;BME280;5349;41.554;23.274;2023-02-12T06:08:02;100559.47;;;-0.39;72.07
10604;BME280;5349;41.554;23.274;2023-02-12T06:10:29;100555.94;;;-0.26;72.93
10604;BME280;5349;41.554;23.274;2023-02-12T06:12:56;100552.41;;;-0.12;73.52
10604;BME280;5349;41.554;23.274;2023-02-12T06:15:24;100548.84;;;0.01;71.52
10604;BME280;5349;41.554;23.274;2023-02-12T06:17:51;100541.63;;;0.17;71.45
10604;BME280;5349;41.554;23.274;2023-02-12T06:20:18;100553.94;;;0.29;72.14
10604;BME280;5349;41.554;23.274;2023-02-12T06:22:45;100551.22;;;0.30;69.79
10604;BME280;5349;41.554;23.274;2023-02-12T06:25:12;100551.09;;;0.44;68.81
10604;BME280;5349;41.554;23.274;2023-02-12T06:27:39;100538.81;;;0.57;70.04
10604;BME280;5349;41.554;23.274;2023-02-12T06:30:06;100547.63;;;0.56;71.20
10604;BME280;5349;41.554;23.274;2023-02-12T06:32:35;100541.56;;;0.56;72.49
10604;BME280;5349;41.554;23.274;2023-02-12T06:35:02;100555.31;;;0.59;72.78
10604;BME280;5349;41.554;23.274;2023-02-12T06:37:29;100538.19;;;0.66;72.59
10604;BME280;5349;41.554;23.274;2023-02-12T06:39:57;100516.97;;;0.44;72.07
10604;BME280;5349;41.554;23.274;2023-02-12T06:42:24;100557.72;;;0.50;73.41
10604;BME280;5349;41.554;23.274;2023-02-12T06:44:50;100555.31;;;0.47;72.40
10604;BME280;5349;41.554;23.274;2023-02-12T06:47:17;100533.16;;;0.51;73.02
10604;BME280;5349;41.554;23.274;2023-02-12T06:49:45;100560.78;;;0.44;72.82
10604;BME280;5349;41.554;23.274;2023-02-12T06:52:12;100567.91;;;0.29;71.26
10604;BME280;5349;41.554;23.274;2023-02-12T06:54:39;100557.94;;;0.47;71.46
10604;BME280;5349;41.554;23.274;2023-02-12T06:57:06;100570.31;;;0.45;70.68
10604;BME280;5349;41.554;23.274;2023-02-12T06:59:34;100556.66;;;0.52;69.44
10604;BME280;5349;41.554;23.274;2023-02-12T07:02:01;100571.38;;;0.67;71.16
10604;BME280;5349;41.554;23.274;2023-02-12T07:04:28;100567.69;;;0.82;70.67
10604;BME280;5349;41.554;23.274;2023-02-12T07:06:56;100571.44;;;0.91;69.99
10604;BME280;5349;41.554;23.274;2023-02-12T07:09:23;100571.97;;;0.96;69.22
10604;BME280;5349;41.554;23.274;2023-02-12T07:11:49;100577.44;;;1.05;68.39
10604;BME280;5349;41.554;23.274;2023-02-12T07:14:16;100591.69;;;1.14;68.33
10604;BME280;5349;41.554;23.274;2023-02-12T07:16:43;100588.81;;;1.29;68.17
10604;BME280;5349;41.554;23.274;2023-02-12T07:19:12;100597.50;;;1.42;68.82
10604;BME280;5349;41.554;23.274;2023-02-12T07:21:39;100589.69;;;1.53;68.71
10604;BME280;5349;41.554;23.274;2023-02-12T07:24:09;100588.53;;;1.57;67.13
10604;BME280;5349;41.554;23.274;2023-02-12T07:26:37;100586.06;;;1.66;66.27
10604;BME280;5349;41.554;23.274;2023-02-12T07:29:04;100592.34;;;1.76;67.95
10604;BME280;5349;41.554;23.274;2023-02-12T07:31:30;100598.69;;;1.85;66.47
10604;BME280;5349;41.554;23.274;2023-02-12T07:33:58;100554.63;;;1.65;66.60
10604;BME280;5349;41.554;23.274;2023-02-12T07:36:28;100592.22;;;2.01;67.15
10604;BME280;5349;41.554;23.274;2023-02-12T07:38:56;100590.19;;;2.05;66.49
10604;BME280;5349;41.554;23.274;2023-02-12T07:41:26;100592.38;;;2.11;66.20
10604;BME280;5349;41.554;23.274;2023-02-12T07:43:54;100596.69;;;2.12;65.12
10604;BME280;5349;41.554;23.274;2023-02-12T07:46:24;100593.47;;;2.19;65.64
10604;BME280;5349;41.554;23.274;2023-02-12T07:48:54;100594.44;;;2.29;65.83
10604;BME280;5349;41.554;23.274;2023-02-12T07:51:22;100592.44;;;2.33;64.03
10604;BME280;5349;41.554;23.274;2023-02-12T07:53:50;100605.13;;;2.28;62.11
10604;BME280;5349;41.554;23.274;2023-02-12T07:56:18;100590.22;;;2.16;61.24
10604;BME280;5349;41.554;23.274;2023-02-12T07:58:50;100594.19;;;2.21;61.78
10604;BME280;5349;41.554;23.274;2023-02-12T08:01:20;100587.28;;;2.31;61.01
10604;BME280;5349;41.554;23.274;2023-02-12T08:03:49;100594.81;;;2.25;59.93
10604;BME280;5349;41.554;23.274;2023-02-12T08:06:18;100590.03;;;2.30;60.17
10604;BME280;5349;41.554;23.274;2023-02-12T08:08:45;100598.69;;;2.42;59.57
10604;BME280;5349;41.554;23.274;2023-02-12T08:11:13;100586.03;;;2.47;61.13
10604;BME280;5349;41.554;23.274;2023-02-12T08:13:41;100588.19;;;2.53;60.12
10604;BME280;5349;41.554;23.274;2023-02-12T08:16:11;100598.75;;;2.75;59.67
10604;BME280;5349;41.554;23.274;2023-02-12T08:18:38;100603.53;;;2.81;59.34
10604;BME280;5349;41.554;23.274;2023-02-12T08:21:07;100568.47;;;2.70;59.54
10604;BME280;5349;41.554;23.274;2023-02-12T08:23:35;100565.00;;;2.80;59.60
10604;BME280;5349;41.554;23.274;2023-02-12T08:26:07;100592.91;;;3.05;58.89
10604;BME280;5349;41.554;23.274;2023-02-12T08:28:34;100598.16;;;3.16;58.07
10604;BME280;5349;41.554;23.274;2023-02-12T08:31:03;100599.03;;;3.27;57.87
10604;BME280;5349;41.554;23.274;2023-02-12T08:33:32;100602.72;;;3.36;57.96
10604;BME280;5349;41.554;23.274;2023-02-12T08:36:03;100587.47;;;3.39;57.84
10604;BME280;5349;41.554;23.274;2023-02-12T08:38:31;100599.47;;;3.43;57.61
10604;BME280;5349;41.554;23.274;2023-02-12T08:41:02;100607.75;;;3.39;56.27
10604;BME280;5349;41.554;23.274;2023-02-12T08:43:29;100609.88;;;3.56;55.84
10604;BME280;5349;41.554;23.274;2023-02-12T08:46:01;100622.53;;;3.72;55.78
10604;BME280;5349;41.554;23.274;2023-02-12T08:48:28;100611.00;;;3.84;53.61
10604;BME280;5349;41.554;23.274;2023-02-12T08:51:02;100607.97;;;4.00;51.47
10604;BME280;5349;41.554;23.274;2023-02-12T08:53:29;100611.88;;;4.16;51.68
10604;BME280;5349;41.554;23.274;2023-02-12T08:55:56;100601.81;;;4.31;51.06
10604;BME280;5349;41.554;23.274;2023-02-12T08:58:23;100612.59;;;4.39;49.93
10604;BME280;5349;41.554;23.274;2023-02-12T09:00:50;100609.38;;;4.56;50.04
10604;BME280;5349;41.554;23.274;2023-02-12T09:03:17;100617.00;;;4.70;49.33
10604;BME280;5349;41.554;23.274;2023-02-12T09:05:44;100618.38;;;4.73;48.06
10604;BME280;5349;41.554;23.274;2023-02-12T09:08:20;100621.72;;;4.75;47.00
10604;BME280;5349;41.554;23.274;2023-02-12T09:10:47;100619.50;;;4.71;46.32
10604;BME280;5349;41.554;23.274;2023-02-12T09:13:14;100596.38;;;4.64;47.86
10604;BME280;5349;41.554;23.274;2023-02-12T09:15:42;100628.97;;;4.94;47.40
10604;BME280;5349;41.554;23.274;2023-02-12T09:18:10;100627.84;;;4.96;46.74
10604;BME280;5349;41.554;23.274;2023-02-12T09:20:39;100628.47;;;5.09;46.49
10604;BME280;5349;41.554;23.274;2023-02-12T09:23:06;100629.81;;;5.24;46.58
10604;BME280;5349;41.554;23.274;2023-02-12T09:25:38;100615.97;;;5.41;45.97
10604;BME280;5349;41.554;23.274;2023-02-12T09:28:05;100626.16;;;5.55;45.48
10604;BME280;5349;41.554;23.274;2023-02-12T09:30:32;100625.78;;;5.69;45.00
10604;BME280;5349;41.554;23.274;2023-02-12T09:32:59;100622.34;;;5.78;43.80
10604;BME280;5349;41.554;23.274;2023-02-12T09:35:25;100616.84;;;5.70;43.87
10604;BME280;5349;41.554;23.274;2023-02-12T09:37:52;100607.88;;;5.82;44.14
10604;BME280;5349;41.554;23.274;2023-02-12T09:40:21;100609.69;;;5.91;44.46
10604;BME280;5349;41.554;23.274;2023-02-12T09:43:07;100609.16;;;6.06;44.25
10604;BME280;5349;41.554;23.274;2023-02-12T09:45:40;100614.47;;;6.25;43.65
10604;BME280;5349;41.554;23.274;2023-02-12T09:48:31;100604.41;;;6.48;43.85
10604;BME280;5349;41.554;23.274;2023-02-12T09:51:04;100595.16;;;6.61;43.49
10604;BME280;5349;41.554;23.274;2023-02-12T09:53:36;100603.13;;;6.71;43.62
10604;BME280;5349;41.554;23.274;2023-02-12T09:56:10;100598.88;;;6.87;43.79
10604;BME280;5349;41.554;23.274;2023-02-12T09:58:44;100603.78;;;6.92;43.94
10604;BME280;5349;41.554;23.274;2023-02-12T10:01:13;100600.53;;;6.98;43.99
10604;BME280;5349;41.554;23.274;2023-02-12T10:03:42;100587.66;;;7.03;43.97
10604;BME280;5349;41.554;23.274;2023-02-12T10:06:14;100593.50;;;7.16;44.29
10604;BME280;5349;41.554;23.274;2023-02-12T10:09:14;100584.13;;;7.21;44.33
10604;BME280;5349;41.554;23.274;2023-02-12T10:11:53;100583.44;;;7.19;44.40
10604;BME280;5349;41.554;23.274;2023-02-12T10:14:45;100591.19;;;7.30;44.38
10604;BME280;5349;41.554;23.274;2023-02-12T10:17:18;100581.53;;;7.38;43.78
10604;BME280;5349;41.554;23.274;2023-02-12T10:20:13;100581.47;;;7.48;44.44
10604;BME280;5349;41.554;23.274;2023-02-12T10:22:51;100583.44;;;7.46;44.83
10604;BME280;5349;41.554;23.274;2023-02-12T10:25:27;100582.75;;;7.44;45.01
10604;BME280;5349;41.554;23.274;2023-02-12T10:27:59;100580.19;;;7.52;45.84
10604;BME280;5349;41.554;23.274;2023-02-12T10:30:38;100584.47;;;7.62;45.11
10604;BME280;5349;41.554;23.274;2023-02-12T10:33:12;100586.16;;;7.63;44.90
10604;BME280;5349;41.554;23.274;2023-02-12T10:35:44;100581.88;;;7.70;45.58
10604;BME280;5349;41.554;23.274;2023-02-12T10:39:14;100577.91;;;7.30;48.62
10604;BME280;5349;41.554;23.274;2023-02-12T10:41:45;100576.81;;;7.32;47.80
10604;BME280;5349;41.554;23.274;2023-02-12T10:44:13;100569.44;;;7.26;49.74
10604;BME280;5349;41.554;23.274;2023-02-12T10:46:40;100572.28;;;7.42;50.99
10604;BME280;5349;41.554;23.274;2023-02-12T10:49:07;100552.22;;;7.57;50.81
10604;BME280;5349;41.554;23.274;2023-02-12T10:51:44;100569.66;;;7.60;50.70
10604;BME280;5349;41.554;23.274;2023-02-12T10:54:34;100551.25;;;7.58;51.46
10604;BME280;5349;41.554;23.274;2023-02-12T10:57:11;100572.25;;;7.69;51.29
10604;BME280;5349;41.554;23.274;2023-02-12T10:59:40;100551.78;;;7.62;51.47
10604;BME280;5349;41.554;23.274;2023-02-12T11:02:28;100563.31;;;7.70;51.93
10604;BME280;5349;41.554;23.274;2023-02-12T11:04:57;100550.72;;;7.72;52.11
10604;BME280;5349;41.554;23.274;2023-02-12T11:07:25;100553.66;;;7.69;51.97
10604;BME280;5349;41.554;23.274;2023-02-12T11:09:55;100545.19;;;7.83;51.40
10604;BME280;5349;41.554;23.274;2023-02-12T11:12:29;100546.19;;;8.00;51.28
10604;BME280;5349;41.554;23.274;2023-02-12T11:14:59;100531.94;;;8.01;50.76
10604;BME280;5349;41.554;23.274;2023-02-12T11:17:34;100540.81;;;7.92;50.78
10604;BME280;5349;41.554;23.274;2023-02-12T11:20:05;100541.53;;;7.84;51.44
10604;BME280;5349;41.554;23.274;2023-02-12T11:22:34;100544.88;;;7.86;51.30
10604;BME280;5349;41.554;23.274;2023-02-12T11:25:14;100545.03;;;7.85;51.54
10604;BME280;5349;41.554;23.274;2023-02-12T11:27:42;100555.22;;;7.89;51.53
10604;BME280;5349;41.554;23.274;2023-02-12T11:30:17;100534.88;;;7.98;51.48
10604;BME280;5349;41.554;23.274;2023-02-12T11:32:45;100541.84;;;7.81;52.15
10604;BME280;5349;41.554;23.274;2023-02-12T11:35:15;100529.94;;;7.68;51.98
10604;BME280;5349;41.554;23.274;2023-02-12T11:37:49;100541.16;;;7.62;53.22
10604;BME280;5349;41.554;23.274;2023-02-12T11:40:21;100564.59;;;7.66;53.10
10604;BME280;5349;41.554;23.274;2023-02-12T11:42:51;100539.78;;;7.75;52.39
10604;BME280;5349;41.554;23.274;2023-02-12T11:45:20;100542.81;;;7.63;52.66
10604;BME280;5349;41.554;23.274;2023-02-12T11:47:49;100542.09;;;7.88;52.51
10604;BME280;5349;41.554;23.274;2023-02-12T11:50:23;100549.50;;;7.67;52.68
10604;BME280;5349;41.554;23.274;2023-02-12T11:52:53;100528.41;;;7.65;53.17
10604;BME280;5349;41.554;23.274;2023-02-12T11:55:25;100537.38;;;7.64;53.02
10604;BME280;5349;41.554;23.274;2023-02-12T11:58:00;100530.47;;;8.06;52.31
10604;BME280;5349;41.554;23.274;2023-02-12T12:00:29;100539.63;;;8.12;52.35
10604;BME280;5349;41.554;23.274;2023-02-12T12:03:03;100545.38;;;8.17;51.25
10604;BME280;5349;41.554;23.274;2023-02-12T12:05:35;100538.28;;;8.08;52.42
10604;BME280;5349;41.554;23.274;2023-02-12T12:08:06;100556.75;;;8.09;52.08
10604;BME280;5349;41.554;23.274;2023-02-12T12:10:44;100547.59;;;8.21;51.96
10604;BME280;5349;41.554;23.274;2023-02-12T12:13:15;100544.31;;;8.27;51.37
10604;BME280;5349;41.554;23.274;2023-02-12T12:15:50;100507.09;;;8.27;51.34
10604;BME280;5349;41.554;23.274;2023-02-12T12:18:41;100529.31;;;8.69;50.86
10604;BME280;5349;41.554;23.274;2023-02-12T12:21:33;100535.38;;;9.12;48.90
10604;BME280;5349;41.554;23.274;2023-02-12T12:24:07;100536.88;;;9.15;48.18
10604;BME280;5349;41.554;23.274;2023-02-12T12:26:39;100541.88;;;9.18;48.42
10604;BME280;5349;41.554;23.274;2023-02-12T12:29:13;100543.91;;;8.90;49.27
10604;BME280;5349;41.554;23.274;2023-02-12T12:31:45;100533.91;;;8.59;50.11
10604;BME280;5349;41.554;23.274;2023-02-12T12:34:14;100534.22;;;8.56;50.20
10604;BME280;5349;41.554;23.274;2023-02-12T12:36:57;100535.75;;;8.58;49.81
10604;BME280;5349;41.554;23.274;2023-02-12T12:39:30;100529.56;;;8.58;50.54
10604;BME280;5349;41.554;23.274;2023-02-12T12:42:24;100531.78;;;8.62;50.55
10604;BME280;5349;41.554;23.274;2023-02-12T12:45:12;100534.38;;;8.54;50.21
10604;BME280;5349;41.554;23.274;2023-02-12T12:47:53;100532.97;;;8.68;50.04
10604;BME280;5349;41.554;23.274;2023-02-12T12:50:45;100537.31;;;8.69;50.43
10604;BME280;5349;41.554;23.274;2023-02-12T12:53:29;100539.38;;;8.83;50.15
10604;BME280;5349;41.554;23.274;2023-02-12T12:56:22;100544.44;;;8.94;49.59
10604;BME280;5349;41.554;23.274;2023-02-12T12:59:17;100544.03;;;8.81;49.23
10604;BME280;5349;41.554;23.274;2023-02-12T13:02:03;100544.59;;;8.92;48.88
10604;BME280;5349;41.554;23.274;2023-02-12T13:04:56;100550.69;;;9.10;48.42
10604;BME280;5349;41.554;23.274;2023-02-12T13:07:43;100557.84;;;9.18;47.90
10604;BME280;5349;41.554;23.274;2023-02-12T13:10:31;100555.69;;;9.13;48.68
10604;BME280;5349;41.554;23.274;2023-02-12T13:13:08;100561.81;;;9.06;48.58
10604;BME280;5349;41.554;23.274;2023-02-12T13:15:46;100563.63;;;9.05;48.87
10604;BME280;5349;41.554;23.274;2023-02-12T13:18:28;100565.88;;;8.92;49.32
10604;BME280;5349;41.554;23.274;2023-02-12T13:21:04;100565.88;;;8.92;49.34
10604;BME280;5349;41.554;23.274;2023-02-12T13:23:41;100570.13;;;9.03;48.79
10604;BME280;5349;41.554;23.274;2023-02-12T13:26:16;100570.63;;;9.06;48.77
10604;BME280;5349;41.554;23.274;2023-02-12T13:28:47;100574.94;;;9.07;49.15
10604;BME280;5349;41.554;23.274;2023-02-12T13:31:21;100584.09;;;9.05;49.35